Time;durP1;ratioP1;P1;durP2;ratioP2;P2;SDS_P1;SDS_P2;PMS_P1;PMS_P2;Temp;Humidity;BMP_temperature;BMP_pressure;BME280_temperature;BME280_humidity;BME280_pressure;Samples;Min_cycle;Max_cycle;Signal;HPM_P1;HPM_P2
2022/12/31 00:01:21;;;;;;;1.33;1.20;;;;;;;;;;5086532;28;20040;-46
2022/12/31 00:03:48;;;;;;;1.92;1.17;;;;;;;;;;5084463;28;20487;-48
2022/12/31 00:06:14;;;;;;;1.80;1.38;;;;;;;;;;5081445;28;20070;-47
2022/12/31 00:08:40;;;;;;;1.63;1.30;;;;;;;;;;5084390;28;20024;-46
2022/12/31 00:11:06;;;;;;;1.60;1.20;;;;;;;;;;5087577;28;20020;-44
2022/12/31 00:13:32;;;;;;;1.70;1.23;;;;;;;;;;5092061;28;20944;-46
2022/12/31 00:16:08;;;;;;;1.58;1.35;;;;;;;;;;5087990;28;20946;-47
2022/12/31 00:18:34;;;;;;;1.60;1.30;;;;;;;;;;5076641;28;20434;-48
2022/12/31 00:21:03;;;;;;;1.95;1.27;;;;;;;;;;5087976;28;20051;-46
2022/12/31 00:23:29;;;;;;;1.30;1.20;;;;;;;;;;5086329;28;20036;-46
2022/12/31 00:25:56;;;;;;;2.47;1.52;;;;;;;;;;5089542;28;20028;-48
2022/12/31 00:28:22;;;;;;;1.60;1.25;;;;;;;;;;5089519;28;20032;-47
2022/12/31 00:30:48;;;;;;;1.58;1.00;;;;;;;;;;5089261;28;20376;-44
2022/12/31 00:33:14;;;;;;;1.60;1.10;;;;;;;;;;5089226;28;20024;-46
2022/12/31 00:35:40;;;;;;;1.77;1.30;;;;;;;;;;5074433;28;20111;-47
2022/12/31 00:38:06;;;;;;;2.15;1.45;;;;;;;;;;5082919;28;20035;-48
2022/12/31 00:40:32;;;;;;;1.60;1.35;;;;;;;;;;5089122;28;20024;-46
2022/12/31 00:42:58;;;;;;;2.22;1.60;;;;;;;;;;5089320;28;20024;-48
2022/12/31 00:45:24;;;;;;;1.75;1.33;;;;;;;;;;5086332;28;20032;-48
2022/12/31 00:47:50;;;;;;;1.48;1.10;;;;;;;;;;5089047;28;20051;-45
2022/12/31 00:50:16;;;;;;;2.08;1.40;;;;;;;;;;5089006;28;20028;-45
2022/12/31 00:52:42;;;;;;;1.27;1.17;;;;;;;;;;5089163;28;20460;-49
2022/12/31 00:55:08;;;;;;;3.13;1.50;;;;;;;;;;5090960;28;20107;-45
2022/12/31 00:57:34;;;;;;;2.00;1.27;;;;;;;;;;5089235;28;20073;-47
2022/12/31 01:00:00;;;;;;;1.90;1.20;;;;;;;;;;5087703;28;20154;-48
2022/12/31 01:02:26;;;;;;;1.42;1.20;;;;;;;;;;5088704;28;20027;-47
2022/12/31 06:12:26;;;;;;;2.75;1.30;;;;;;;;;;5091880;28;20061;-47
2022/12/31 06:14:52;;;;;;;3.10;1.33;;;;;;;;;;5105395;28;20074;-49
2022/12/31 06:17:19;;;;;;;2.95;1.30;;;;;;;;;;5075603;28;20077;-48
2022/12/31 06:19:46;;;;;;;2.58;1.25;;;;;;;;;;5111108;28;20022;-46
2022/12/31 06:22:12;;;;;;;2.42;1.30;;;;;;;;;;5112427;28;20024;-47
2022/12/31 06:24:38;;;;;;;2.22;1.20;;;;;;;;;;5097288;28;20032;-49
2022/12/31 06:27:04;;;;;;;2.30;1.58;;;;;;;;;;5091940;28;20039;-49
2022/12/31 06:29:30;;;;;;;2.88;1.10;;;;;;;;;;5092236;28;20027;-49
2022/12/31 06:31:56;;;;;;;2.90;1.50;;;;;;;;;;5091927;28;20518;-45
2022/12/31 06:34:22;;;;;;;1.88;1.20;;;;;;;;;;5099616;28;20028;-50
2022/12/31 06:36:48;;;;;;;2.45;1.17;;;;;;;;;;5111190;28;20024;-49
2022/12/31 06:39:14;;;;;;;1.08;0.98;;;;;;;;;;5111830;28;20050;-47
2022/12/31 06:41:40;;;;;;;1.90;1.27;;;;;;;;;;5112195;28;20031;-48
2022/12/31 06:44:06;;;;;;;1.23;1.05;;;;;;;;;;5111994;28;20024;-47
2022/12/31 06:46:32;;;;;;;2.05;0.93;;;;;;;;;;5112221;28;20522;-45
2022/12/31 06:48:58;;;;;;;1.63;1.00;;;;;;;;;;5111801;28;20016;-46
2022/12/31 06:51:24;;;;;;;1.98;1.30;;;;;;;;;;5111025;28;20075;-48
2022/12/31 06:53:51;;;;;;;2.38;1.20;;;;;;;;;;5099812;28;20032;-47
2022/12/31 06:56:19;;;;;;;1.38;1.20;;;;;;;;;;5110157;28;20118;-49
2022/12/31 06:58:45;;;;;;;2.97;1.30;;;;;;;;;;5111805;28;20032;-49
2022/12/31 07:01:14;;;;;;;1.85;1.40;;;;;;;;;;5106097;28;20020;-47
2022/12/31 07:03:46;;;;;;;2.00;1.10;;;;;;;;;;5091542;28;20101;-49
2022/12/31 07:06:16;;;;;;;2.53;1.30;;;;;;;;;;5091105;28;20060;-49
2022/12/31 07:08:42;;;;;;;1.27;1.10;;;;;;;;;;5100643;28;20046;-48
2022/12/31 07:11:14;;;;;;;2.10;1.10;;;;;;;;;;5110112;28;20032;-46
2022/12/31 07:13:49;;;;;;;1.10;0.90;;;;;;;;;;5107054;28;20027;-46
2022/12/31 07:16:34;;;;;;;2.05;1.38;;;;;;;;;;5095454;28;20514;-46
2022/12/31 07:19:11;;;;;;;2.50;1.10;;;;;;;;;;5111543;28;20504;-48
2022/12/31 07:21:39;;;;;;;1.45;1.02;;;;;;;;;;5111045;28;20031;-46
2022/12/31 07:24:08;;;;;;;1.15;0.80;;;;;;;;;;5110906;28;20523;-49
2022/12/31 07:26:49;;;;;;;1.00;0.80;;;;;;;;;;5110961;28;20019;-49
2022/12/31 07:29:15;;;;;;;0.82;0.70;;;;;;;;;;5089361;28;20045;-46
2022/12/31 07:31:53;;;;;;;1.30;0.77;;;;;;;;;;5110275;28;20027;-49
2022/12/31 07:34:25;;;;;;;0.52;0.52;;;;;;;;;;5109934;28;20063;-46
2022/12/31 07:37:05;;;;;;;0.70;0.70;;;;;;;;;;5111037;28;20016;-50
2022/12/31 07:39:39;;;;;;;0.80;0.70;;;;;;;;;;5111270;28;20394;-46
2022/12/31 07:42:18;;;;;;;1.23;0.80;;;;;;;;;;5110391;28;20025;-45
2022/12/31 07:45:00;;;;;;;0.70;0.70;;;;;;;;;;5111008;28;20249;-49
2022/12/31 07:47:27;;;;;;;1.17;0.80;;;;;;;;;;5094892;28;20035;-47
2022/12/31 07:49:54;;;;;;;0.90;0.65;;;;;;;;;;5110623;27;20023;-47
2022/12/31 07:52:20;;;;;;;1.02;1.00;;;;;;;;;;5131136;27;20091;-47
2022/12/31 07:54:47;;;;;;;1.00;0.82;;;;;;;;;;5131123;27;20042;-47
2022/12/31 07:57:14;;;;;;;1.23;0.63;;;;;;;;;;5107368;27;20483;-46
2022/12/31 07:59:56;;;;;;;2.28;0.93;;;;;;;;;;5091276;28;20027;-47
2022/12/31 08:02:34;;;;;;;0.77;0.73;;;;;;;;;;5102936;28;20028;-47
2022/12/31 08:05:19;;;;;;;1.08;0.90;;;;;;;;;;5090348;28;20104;-47
2022/12/31 08:07:50;;;;;;;0.90;0.85;;;;;;;;;;5109500;28;20040;-50
2022/12/31 08:10:52;;;;;;;1.38;1.00;;;;;;;;;;5109845;28;20024;-49
2022/12/31 08:13:18;;;;;;;1.00;0.90;;;;;;;;;;5003972;28;20041;-49
2022/12/31 08:15:44;;;;;;;1.00;0.90;;;;;;;;;;5092060;28;20131;-47
2022/12/31 08:18:10;;;;;;;1.20;0.98;;;;;;;;;;5109231;28;20036;-46
2022/12/31 08:20:45;;;;;;;1.95;0.88;;;;;;;;;;5109605;28;20112;-45
2022/12/31 08:23:11;;;;;;;0.88;0.75;;;;;;;;;;5110041;28;20035;-44
2022/12/31 08:25:49;;;;;;;1.33;1.00;;;;;;;;;;5098875;28;20050;-47
2022/12/31 08:28:38;;;;;;;1.25;1.02;;;;;;;;;;5110687;27;20027;-46
2022/12/31 08:31:10;;;;;;;0.82;0.70;;;;;;;;;;5051603;28;20051;-45
2022/12/31 08:33:43;;;;;;;1.77;1.02;;;;;;;;;;5103432;28;20040;-44
2022/12/31 08:36:28;;;;;;;0.73;0.73;;;;;;;;;;5108933;28;20382;-44
2022/12/31 08:38:57;;;;;;;1.17;0.80;;;;;;;;;;5110459;28;20027;-45
2022/12/31 08:41:43;;;;;;;1.45;1.10;;;;;;;;;;5099619;28;20039;-46
2022/12/31 08:44:18;;;;;;;1.20;0.80;;;;;;;;;;5092719;28;20046;-46
2022/12/31 08:46:49;;;;;;;1.27;0.85;;;;;;;;;;5107267;28;20020;-47
2022/12/31 08:49:15;;;;;;;1.08;0.82;;;;;;;;;;5105972;28;20111;-47
2022/12/31 08:51:42;;;;;;;1.65;0.65;;;;;;;;;;5097803;28;20023;-45
2022/12/31 08:54:10;;;;;;;5.50;1.00;;;;;;;;;;5110454;28;20394;-45
2022/12/31 08:56:56;;;;;;;1.23;1.13;;;;;;;;;;5110229;28;20024;-47
2022/12/31 08:59:28;;;;;;;2.13;0.88;;;;;;;;;;5110282;28;20031;-45
2022/12/31 09:02:03;;;;;;;0.80;0.73;;;;;;;;;;5105432;28;20043;-47
2022/12/31 09:04:48;;;;;;;1.05;0.80;;;;;;;;;;5090311;28;20632;-47
2022/12/31 09:07:15;;;;;;;1.35;1.00;;;;;;;;;;5104659;28;20047;-44
2022/12/31 09:09:46;;;;;;;1.98;1.23;;;;;;;;;;5100864;28;20055;-47
2022/12/31 09:12:18;;;;;;;2.35;1.10;;;;;;;;;;5108717;28;20023;-46
2022/12/31 09:14:47;;;;;;;1.75;1.10;;;;;;;;;;5101455;28;20059;-44
2022/12/31 09:17:22;;;;;;;1.40;1.00;;;;;;;;;;5090484;28;20132;-45
2022/12/31 09:19:49;;;;;;;2.60;1.20;;;;;;;;;;5096433;28;20051;-45
2022/12/31 09:22:15;;;;;;;2.53;1.23;;;;;;;;;;5094477;28;20077;-48
2022/12/31 09:24:41;;;;;;;2.90;1.23;;;;;;;;;;5082076;28;20038;-47
2022/12/31 09:27:30;;;;;;;1.67;1.17;;;;;;;;;;5073128;28;20033;-49
2022/12/31 09:30:05;;;;;;;1.65;1.15;;;;;;;;;;5058153;28;20494;-48
2022/12/31 09:32:47;;;;;;;1.73;1.20;;;;;;;;;;5099831;28;20019;-44
2022/12/31 09:35:36;;;;;;;1.50;0.98;;;;;;;;;;5098607;28;20536;-46
2022/12/31 09:38:12;;;;;;;1.67;1.00;;;;;;;;;;5080956;28;20491;-47
2022/12/31 09:41:05;;;;;;;1.10;1.00;;;;;;;;;;5096008;28;20023;-48
2022/12/31 09:43:31;;;;;;;1.73;1.15;;;;;;;;;;5090269;28;20024;-45
2022/12/31 09:46:17;;;;;;;1.23;1.10;;;;;;;;;;5087661;28;20032;-45
2022/12/31 09:48:43;;;;;;;2.00;1.20;;;;;;;;;;5097300;28;20012;-47
2022/12/31 09:51:17;;;;;;;2.13;1.23;;;;;;;;;;5094404;28;20031;-48
2022/12/31 09:53:58;;;;;;;2.55;1.10;;;;;;;;;;5096015;28;20020;-49
2022/12/31 09:56:39;;;;;;;1.67;1.02;;;;;;;;;;5099046;28;20513;-47
2022/12/31 09:59:10;;;;;;;1.77;1.38;;;;;;;;;;5095908;28;20027;-49
2022/12/31 10:01:43;;;;;;;1.67;1.10;;;;;;;;;;5094815;28;20031;-47
2022/12/31 10:04:09;;;;;;;1.85;1.30;;;;;;;;;;5069927;28;20403;-47
2022/12/31 10:06:41;;;;;;;1.38;1.27;;;;;;;;;;5075774;28;20029;-49
2022/12/31 10:09:26;;;;;;;2.03;1.00;;;;;;;;;;5087016;28;20046;-45
2022/12/31 10:12:15;;;;;;;1.48;1.05;;;;;;;;;;5089044;28;20046;-48
2022/12/31 10:14:42;;;;;;;2.05;1.27;;;;;;;;;;5088860;28;20050;-49
2022/12/31 10:17:14;;;;;;;1.27;1.00;;;;;;;;;;5088668;28;20057;-48
2022/12/31 10:19:59;;;;;;;3.47;1.20;;;;;;;;;;5088733;28;20059;-50
2022/12/31 10:22:43;;;;;;;2.10;1.30;;;;;;;;;;5085739;28;20028;-48
2022/12/31 10:25:30;;;;;;;2.30;1.17;;;;;;;;;;5080683;28;20032;-46
2022/12/31 10:28:19;;;;;;;1.65;1.17;;;;;;;;;;5069080;28;20044;-48
2022/12/31 10:30:56;;;;;;;1.10;0.98;;;;;;;;;;5050607;28;20051;-47
2022/12/31 10:33:35;;;;;;;1.30;1.05;;;;;;;;;;5096896;28;20847;-49
2022/12/31 10:36:19;;;;;;;2.72;2.17;;;;;;;;;;5096564;28;20111;-50
2022/12/31 10:39:04;;;;;;;3.97;1.38;;;;;;;;;;5089533;28;20020;-49
2022/12/31 10:41:30;;;;;;;;;;;;;;;;;;5100264;28;20047;-48
2022/12/31 10:44:15;;;;;;;2.80;1.67;;;;;;;;;;5099589;28;20370;-48
2022/12/31 10:46:54;;;;;;;3.22;1.90;;;;;;;;;;5096303;28;20031;-50
2022/12/31 10:49:39;;;;;;;2.25;1.38;;;;;;;;;;5088693;28;20088;-50
2022/12/31 10:52:33;;;;;;;1.70;1.35;;;;;;;;;;5094189;28;20050;-49
2022/12/31 10:55:08;;;;;;;4.57;1.80;;;;;;;;;;5090025;28;20422;-46
2022/12/31 10:57:45;;;;;;;2.03;1.33;;;;;;;;;;5069447;28;20036;-44
2022/12/31 11:00:21;;;;;;;2.53;1.48;;;;;;;;;;5085190;28;20051;-47
2022/12/31 11:02:50;;;;;;;2.42;1.60;;;;;;;;;;5088848;28;20019;-47
2022/12/31 11:05:19;;;;;;;3.38;1.60;;;;;;;;;;5088597;28;20024;-45
2022/12/31 11:08:04;;;;;;;1.55;1.10;;;;;;;;;;5089994;28;20024;-46
2022/12/31 11:10:36;;;;;;;1.92;1.30;;;;;;;;;;5090561;28;20104;-48
2022/12/31 11:13:20;;;;;;;3.28;1.35;;;;;;;;;;5091211;28;20024;-49
2022/12/31 11:15:52;;;;;;;2.50;1.45;;;;;;;;;;5106066;28;20023;-47
2022/12/31 11:18:31;;;;;;;2.85;1.45;;;;;;;;;;5111612;27;20011;-47
2022/12/31 11:21:26;;;;;;;4.15;1.60;;;;;;;;;;5109786;28;20047;-49
2022/12/31 11:24:24;;;;;;;2.75;1.33;;;;;;;;;;5018999;28;20541;-48
2022/12/31 11:27:09;;;;;;;1.77;1.05;;;;;;;;;;5048538;28;20075;-47
2022/12/31 11:29:44;;;;;;;3.45;1.30;;;;;;;;;;5104711;28;20023;-48
2022/12/31 11:32:10;;;;;;;2.97;1.58;;;;;;;;;;5112126;28;20069;-48
2022/12/31 11:35:14;;;;;;;2.53;1.50;;;;;;;;;;5112245;28;20059;-50
2022/12/31 11:37:48;;;;;;;3.00;1.67;;;;;;;;;;5038058;28;20039;-48
2022/12/31 11:40:36;;;;;;;2.42;1.40;;;;;;;;;;5043796;28;20180;-49
2022/12/31 11:43:25;;;;;;;1.63;1.30;;;;;;;;;;5070713;28;20122;-49
2022/12/31 11:46:15;;;;;;;3.33;1.75;;;;;;;;;;5108560;28;20032;-46
2022/12/31 11:48:41;;;;;;;1.67;1.40;;;;;;;;;;5115913;27;20106;-47
2022/12/31 11:51:07;;;;;;;2.58;1.20;;;;;;;;;;5120447;27;20032;-51
2022/12/31 11:53:42;;;;;;;2.90;1.55;;;;;;;;;;5111389;28;20026;-46
2022/12/31 11:56:13;;;;;;;2.03;1.15;;;;;;;;;;5110983;28;20023;-47
2022/12/31 11:58:45;;;;;;;2.83;1.50;;;;;;;;;;5110151;28;20028;-49
2022/12/31 12:01:13;;;;;;;2.22;1.55;;;;;;;;;;5102071;28;20085;-48
2022/12/31 12:03:42;;;;;;;3.38;1.63;;;;;;;;;;5111054;28;20023;-46
2022/12/31 12:06:15;;;;;;;2.97;1.25;;;;;;;;;;5110731;28;20034;-51
2022/12/31 12:08:42;;;;;;;2.53;1.33;;;;;;;;;;5111268;28;20035;-48
2022/12/31 12:11:17;;;;;;;2.35;1.50;;;;;;;;;;5110826;28;20031;-50
2022/12/31 12:13:43;;;;;;;3.10;1.50;;;;;;;;;;5110760;28;20045;-48
2022/12/31 12:16:10;;;;;;;2.60;1.38;;;;;;;;;;5110709;28;20078;-46
2022/12/31 12:18:39;;;;;;;4.60;1.63;;;;;;;;;;5110626;28;20020;-50
2022/12/31 12:21:11;;;;;;;2.83;1.40;;;;;;;;;;5108781;28;20023;-46
2022/12/31 12:23:38;;;;;;;3.10;1.65;;;;;;;;;;5111229;28;20031;-46
2022/12/31 12:26:05;;;;;;;3.90;1.27;;;;;;;;;;5110848;28;20039;-47
2022/12/31 12:28:40;;;;;;;1.90;1.65;;;;;;;;;;5107307;28;20031;-46
2022/12/31 12:31:06;;;;;;;3.83;1.60;;;;;;;;;;5109635;28;20394;-48
2022/12/31 12:33:42;;;;;;;3.90;1.55;;;;;;;;;;5110989;28;20039;-47
2022/12/31 12:36:12;;;;;;;4.13;1.42;;;;;;;;;;5101479;28;20038;-48
2022/12/31 12:38:39;;;;;;;6.53;1.55;;;;;;;;;;5110369;28;20027;-49
2022/12/31 12:41:09;;;;;;;3.83;1.17;;;;;;;;;;5112188;27;20434;-51
2022/12/31 12:43:36;;;;;;;3.78;1.77;;;;;;;;;;5090801;28;20038;-49
2022/12/31 12:46:19;;;;;;;5.28;1.70;;;;;;;;;;5110414;28;20054;-48
2022/12/31 12:48:48;;;;;;;2.95;1.30;;;;;;;;;;5109647;28;20378;-49
2022/12/31 12:51:21;;;;;;;3.78;1.70;;;;;;;;;;5110130;28;20074;-48
2022/12/31 12:53:47;;;;;;;2.93;1.87;;;;;;;;;;5110276;28;20068;-51
2022/12/31 12:56:21;;;;;;;3.75;1.80;;;;;;;;;;5109570;28;20059;-50
2022/12/31 12:59:06;;;;;;;5.38;1.95;;;;;;;;;;5108753;28;20055;-50
2022/12/31 13:01:49;;;;;;;4.57;2.22;;;;;;;;;;5106616;28;20024;-49
2022/12/31 13:04:33;;;;;;;3.85;2.00;;;;;;;;;;5108952;28;20035;-46
2022/12/31 13:06:59;;;;;;;;;;;;;;;;;;5110899;28;20107;-50
2022/12/31 13:09:28;;;;;;;3.10;1.58;;;;;;;;;;5109933;28;19954;-51
2022/12/31 13:12:11;;;;;;;7.80;1.85;;;;;;;;;;5106425;28;20032;-50
2022/12/31 13:14:42;;;;;;;3.78;1.50;;;;;;;;;;5094231;28;20108;-50
2022/12/31 13:17:27;;;;;;;3.05;1.67;;;;;;;;;;5108675;28;20028;-50
2022/12/31 13:19:56;;;;;;;4.18;2.00;;;;;;;;;;5115686;27;20053;-49
2022/12/31 13:22:27;;;;;;;6.35;2.00;;;;;;;;;;5111889;27;20439;-50
2022/12/31 13:25:12;;;;;;;4.25;1.90;;;;;;;;;;5107018;28;20560;-48
2022/12/31 13:27:40;;;;;;;6.90;2.20;;;;;;;;;;5099682;28;20046;-49
2022/12/31 13:30:17;;;;;;;2.95;1.98;;;;;;;;;;5099435;28;20027;-49
2022/12/31 13:32:52;;;;;;;6.68;1.80;;;;;;;;;;5109115;28;20119;-49
2022/12/31 13:35:24;;;;;;;4.38;2.50;;;;;;;;;;5107004;28;20761;-49
2022/12/31 13:37:52;;;;;;;6.72;2.33;;;;;;;;;;5104533;28;20498;-49
2022/12/31 13:40:18;;;;;;;5.90;2.42;;;;;;;;;;5106814;28;20084;-49
2022/12/31 13:43:06;;;;;;;5.70;2.38;;;;;;;;;;5102523;27;20395;-50
2022/12/31 13:45:37;;;;;;;4.55;2.50;;;;;;;;;;5109038;28;20107;-47
2022/12/31 13:48:07;;;;;;;5.40;2.58;;;;;;;;;;5108310;28;20406;-50
2022/12/31 13:50:39;;;;;;;4.03;2.17;;;;;;;;;;5106707;28;20092;-46
2022/12/31 13:53:08;;;;;;;4.65;2.22;;;;;;;;;;5088480;28;20405;-50
2022/12/31 13:55:37;;;;;;;4.07;2.28;;;;;;;;;;5106857;28;20031;-46
2022/12/31 13:58:06;;;;;;;3.95;1.98;;;;;;;;;;5108247;28;20524;-51
2022/12/31 14:00:55;;;;;;;5.80;2.20;;;;;;;;;;5108572;28;20032;-48
2022/12/31 14:03:27;;;;;;;6.05;2.58;;;;;;;;;;5109174;28;20020;-49
2022/12/31 14:06:12;;;;;;;3.85;2.22;;;;;;;;;;5107444;28;20050;-51
2022/12/31 14:08:39;;;;;;;4.30;2.20;;;;;;;;;;5107135;28;20054;-51
2022/12/31 14:11:17;;;;;;;6.28;3.10;;;;;;;;;;5088814;28;20505;-50
2022/12/31 14:14:02;;;;;;;5.57;2.42;;;;;;;;;;5107290;28;20573;-48
2022/12/31 14:16:51;;;;;;;4.30;2.95;;;;;;;;;;5107766;28;20053;-51
2022/12/31 14:19:35;;;;;;;5.55;2.60;;;;;;;;;;5107800;28;20475;-47
2022/12/31 14:22:24;;;;;;;7.63;2.30;;;;;;;;;;5107721;28;20022;-50
2022/12/31 14:24:51;;;;;;;5.25;2.50;;;;;;;;;;5107024;28;20035;-50
2022/12/31 14:27:28;;;;;;;3.53;1.95;;;;;;;;;;5107399;28;20047;-50
2022/12/31 14:30:20;;;;;;;3.55;1.92;;;;;;;;;;5107166;28;20041;-48
2022/12/31 14:33:01;;;;;;;6.43;3.13;;;;;;;;;;5102727;28;20603;-47
2022/12/31 14:36:00;;;;;;;5.47;2.50;;;;;;;;;;5107463;28;20032;-51
2022/12/31 14:38:44;;;;;;;6.95;2.30;;;;;;;;;;5053426;28;20465;-49
2022/12/31 14:41:10;;;;;;;;;;;;;;;;;;5111834;28;20094;-47
2022/12/31 14:43:56;;;;;;;5.50;2.38;;;;;;;;;;5110958;28;20025;-49
2022/12/31 14:46:34;;;;;;;4.32;2.17;;;;;;;;;;5110927;28;20165;-51
2022/12/31 14:49:11;;;;;;;6.53;2.30;;;;;;;;;;5111110;28;20521;-49
2022/12/31 14:51:37;;;;;;;4.10;2.78;;;;;;;;;;5110907;28;20023;-47
2022/12/31 14:54:04;;;;;;;7.50;2.38;;;;;;;;;;5110907;28;20389;-50
2022/12/31 14:56:50;;;;;;;3.78;2.25;;;;;;;;;;5111150;28;20537;-46
2022/12/31 14:59:24;;;;;;;8.00;2.47;;;;;;;;;;5110162;28;20598;-49
2022/12/31 15:01:50;;;;;;;4.78;2.30;;;;;;;;;;5110975;28;20490;-49
2022/12/31 15:04:16;;;;;;;5.93;2.58;;;;;;;;;;5110869;28;20426;-49
2022/12/31 15:06:57;;;;;;;4.95;2.10;;;;;;;;;;5110603;28;20016;-49
2022/12/31 15:09:23;;;;;;;4.57;2.35;;;;;;;;;;5110399;28;20034;-51
2022/12/31 15:12:08;;;;;;;6.78;2.45;;;;;;;;;;5110391;28;20031;-48
2022/12/31 15:14:49;;;;;;;5.55;2.28;;;;;;;;;;5110762;28;20322;-52
2022/12/31 15:17:21;;;;;;;4.70;2.30;;;;;;;;;;5110455;28;20016;-45
2022/12/31 15:19:56;;;;;;;4.78;2.60;;;;;;;;;;5110542;28;20023;-48
2022/12/31 15:22:37;;;;;;;3.88;2.15;;;;;;;;;;5109932;28;21019;-49
2022/12/31 15:25:04;;;;;;;7.00;3.00;;;;;;;;;;5110359;28;20038;-51
2022/12/31 15:27:33;;;;;;;6.55;2.67;;;;;;;;;;5110554;28;20019;-50
2022/12/31 15:30:00;;;;;;;4.85;2.30;;;;;;;;;;5124144;27;20072;-49
2022/12/31 15:32:34;;;;;;;5.57;2.30;;;;;;;;;;5100612;27;20043;-49
2022/12/31 15:35:19;;;;;;;6.82;2.50;;;;;;;;;;5111771;28;20039;-51
2022/12/31 15:37:57;;;;;;;5.75;2.30;;;;;;;;;;5097239;28;20024;-47
2022/12/31 15:40:27;;;;;;;6.13;2.38;;;;;;;;;;5092030;27;20483;-49
2022/12/31 15:43:02;;;;;;;6.40;2.05;;;;;;;;;;5090880;28;20081;-48
2022/12/31 15:45:37;;;;;;;6.13;2.58;;;;;;;;;;5091259;28;20036;-49
2022/12/31 15:48:07;;;;;;;3.10;1.92;;;;;;;;;;5099549;28;20032;-50
2022/12/31 15:50:35;;;;;;;6.53;2.42;;;;;;;;;;5107814;27;20032;-51
2022/12/31 15:53:02;;;;;;;5.53;2.70;;;;;;;;;;5107821;28;20024;-48
2022/12/31 15:55:36;;;;;;;6.95;2.42;;;;;;;;;;5091060;28;20409;-48
2022/12/31 15:58:06;;;;;;;5.13;2.40;;;;;;;;;;5107095;28;20500;-49
2022/12/31 16:00:41;;;;;;;5.53;2.22;;;;;;;;;;5105926;28;20039;-50
2022/12/31 16:03:17;;;;;;;3.35;1.98;;;;;;;;;;5105217;27;20096;-48
2022/12/31 16:05:43;;;;;;;5.25;2.30;;;;;;;;;;5107586;28;20028;-48
2022/12/31 16:08:13;;;;;;;4.15;2.20;;;;;;;;;;5107283;28;20409;-48
2022/12/31 16:10:42;;;;;;;4.72;2.15;;;;;;;;;;5106287;28;20035;-50
2022/12/31 16:13:17;;;;;;;7.60;2.28;;;;;;;;;;5101754;28;20499;-49
2022/12/31 16:15:43;;;;;;;4.32;2.10;;;;;;;;;;5104629;28;20035;-47
2022/12/31 16:18:13;;;;;;;6.80;2.42;;;;;;;;;;5085009;28;20886;-50
2022/12/31 16:20:44;;;;;;;6.00;2.22;;;;;;;;;;5107143;28;20576;-49
2022/12/31 16:23:24;;;;;;;3.60;2.20;;;;;;;;;;5108805;28;20035;-46
2022/12/31 16:25:57;;;;;;;5.28;1.90;;;;;;;;;;5109158;28;20028;-49
2022/12/31 16:28:25;;;;;;;6.72;2.28;;;;;;;;;;5101270;28;20518;-50
2022/12/31 16:31:15;;;;;;;3.83;2.47;;;;;;;;;;5107419;28;20402;-47
2022/12/31 16:33:41;;;;;;;4.18;2.00;;;;;;;;;;5109448;27;20023;-47
2022/12/31 16:36:16;;;;;;;4.10;2.30;;;;;;;;;;5106515;28;20110;-52
2022/12/31 16:38:42;;;;;;;6.82;2.58;;;;;;;;;;5100068;28;20028;-50
2022/12/31 16:41:15;;;;;;;5.85;2.15;;;;;;;;;;5090422;28;20020;-48
2022/12/31 16:43:42;;;;;;;5.40;2.25;;;;;;;;;;5106047;28;20019;-49
2022/12/31 16:46:14;;;;;;;3.63;2.13;;;;;;;;;;5109890;28;20034;-47
2022/12/31 16:48:44;;;;;;;4.97;2.10;;;;;;;;;;5104540;28;20020;-51
2022/12/31 16:51:13;;;;;;;3.05;1.95;;;;;;;;;;5107226;28;20046;-47
2022/12/31 16:53:40;;;;;;;8.45;2.42;;;;;;;;;;5110461;28;20070;-46
2022/12/31 16:56:07;;;;;;;4.10;2.25;;;;;;;;;;5108390;28;20106;-48
2022/12/31 16:58:39;;;;;;;4.68;2.42;;;;;;;;;;5109879;28;20019;-48
2022/12/31 17:01:11;;;;;;;4.03;2.00;;;;;;;;;;5102027;28;20564;-49
2022/12/31 17:03:39;;;;;;;6.20;1.98;;;;;;;;;;5090054;28;20028;-49
2022/12/31 17:06:05;;;;;;;3.28;2.17;;;;;;;;;;5090100;28;20051;-49
2022/12/31 17:08:39;;;;;;;3.35;2.20;;;;;;;;;;5090198;28;20040;-51
2022/12/31 17:11:05;;;;;;;4.88;2.28;;;;;;;;;;5089940;28;20024;-45
2022/12/31 17:13:33;;;;;;;3.42;2.08;;;;;;;;;;5105192;28;20062;-48
2022/12/31 17:16:00;;;;;;;5.88;2.40;;;;;;;;;;5108160;28;20059;-50
2022/12/31 17:18:29;;;;;;;6.57;2.75;;;;;;;;;;5109053;28;20023;-50
2022/12/31 17:21:04;;;;;;;4.72;2.33;;;;;;;;;;5098716;28;20032;-49
2022/12/31 17:23:31;;;;;;;5.25;2.22;;;;;;;;;;5090361;28;20016;-48
2022/12/31 17:25:59;;;;;;;5.78;2.63;;;;;;;;;;5090848;28;20028;-46
2022/12/31 17:28:26;;;;;;;6.07;2.47;;;;;;;;;;5097357;28;20035;-50
2022/12/31 17:30:52;;;;;;;4.82;2.30;;;;;;;;;;5084471;28;20481;-46
2022/12/31 17:33:21;;;;;;;3.42;2.17;;;;;;;;;;5109729;28;20500;-48
2022/12/31 17:35:48;;;;;;;6.45;3.20;;;;;;;;;;5109687;28;20032;-50
2022/12/31 17:38:23;;;;;;;4.55;2.60;;;;;;;;;;5110055;28;20016;-50
2022/12/31 17:40:53;;;;;;;4.60;2.35;;;;;;;;;;5109765;28;20031;-48
2022/12/31 17:43:20;;;;;;;5.57;2.45;;;;;;;;;;5109981;28;20024;-50
2022/12/31 17:45:47;;;;;;;3.10;1.85;;;;;;;;;;5108712;28;20035;-48
2022/12/31 17:48:14;;;;;;;5.07;2.03;;;;;;;;;;5109949;28;20027;-48
2022/12/31 17:50:50;;;;;;;7.10;2.25;;;;;;;;;;5107269;28;20054;-49
2022/12/31 17:53:16;;;;;;;4.72;1.90;;;;;;;;;;5109898;28;20024;-48
2022/12/31 17:55:46;;;;;;;5.78;2.35;;;;;;;;;;5089425;28;20092;-49
2022/12/31 17:58:22;;;;;;;2.58;1.77;;;;;;;;;;5108662;28;20051;-45
2022/12/31 18:00:48;;;;;;;4.70;2.40;;;;;;;;;;5109085;28;20028;-49
2022/12/31 18:03:14;;;;;;;4.00;2.55;;;;;;;;;;5111055;28;20038;-48
2022/12/31 18:05:40;;;;;;;9.27;2.30;;;;;;;;;;5109483;28;20490;-49
2022/12/31 18:08:06;;;;;;;5.18;1.98;;;;;;;;;;5105471;28;20551;-48
2022/12/31 18:10:35;;;;;;;4.35;1.95;;;;;;;;;;5110202;28;20437;-51
2022/12/31 18:13:03;;;;;;;8.27;1.98;;;;;;;;;;5110619;28;20514;-50
2022/12/31 18:15:29;;;;;;;5.20;2.53;;;;;;;;;;5112022;28;20490;-47
2022/12/31 18:17:55;;;;;;;7.22;2.00;;;;;;;;;;5106961;28;20024;-51
2022/12/31 18:20:22;;;;;;;5.43;2.13;;;;;;;;;;5112412;28;21037;-48
2022/12/31 18:22:48;;;;;;;5.43;2.30;;;;;;;;;;5113689;28;20020;-48
2022/12/31 18:25:23;;;;;;;4.68;2.85;;;;;;;;;;5113375;28;20130;-48
2022/12/31 18:27:50;;;;;;;7.53;2.60;;;;;;;;;;5113868;28;20035;-46
2022/12/31 18:30:16;;;;;;;4.70;2.30;;;;;;;;;;5109220;28;20035;-48
2022/12/31 18:32:43;;;;;;;8.20;2.10;;;;;;;;;;5112743;28;20061;-50
2022/12/31 18:35:19;;;;;;;3.97;2.13;;;;;;;;;;5112114;28;20088;-49
2022/12/31 18:37:45;;;;;;;5.28;1.77;;;;;;;;;;5112215;28;20024;-50
2022/12/31 18:40:12;;;;;;;4.80;2.20;;;;;;;;;;5098011;28;20058;-47
2022/12/31 18:42:38;;;;;;;6.20;2.30;;;;;;;;;;5100506;28;20023;-48
2022/12/31 18:45:12;;;;;;;5.47;2.30;;;;;;;;;;5111809;28;20068;-48
2022/12/31 18:47:38;;;;;;;7.25;2.53;;;;;;;;;;5111305;28;20031;-49
2022/12/31 18:50:05;;;;;;;7.25;2.30;;;;;;;;;;5110965;28;20046;-50
2022/12/31 18:52:31;;;;;;;6.55;2.40;;;;;;;;;;5112306;28;20031;-49
2022/12/31 18:54:57;;;;;;;5.85;2.90;;;;;;;;;;5112257;28;20574;-49
2022/12/31 18:57:23;;;;;;;5.95;2.05;;;;;;;;;;5110919;28;20098;-48
2022/12/31 18:59:49;;;;;;;5.25;2.17;;;;;;;;;;5110810;28;20027;-49
2022/12/31 19:02:19;;;;;;;6.47;2.70;;;;;;;;;;5107506;28;20024;-49
2022/12/31 19:04:46;;;;;;;9.35;2.63;;;;;;;;;;5108829;28;20522;-48
2022/12/31 19:07:12;;;;;;;3.65;2.35;;;;;;;;;;5103997;28;20145;-50
2022/12/31 19:09:38;;;;;;;5.72;2.53;;;;;;;;;;5106450;28;20491;-48
2022/12/31 19:12:04;;;;;;;6.13;2.10;;;;;;;;;;5111308;28;20053;-47
2022/12/31 19:14:30;;;;;;;4.07;2.00;;;;;;;;;;5110887;28;20039;-50
2022/12/31 19:16:58;;;;;;;5.78;2.03;;;;;;;;;;5105194;28;20035;-46
2022/12/31 19:19:25;;;;;;;8.38;2.50;;;;;;;;;;5089405;28;20044;-50
2022/12/31 19:21:51;;;;;;;6.72;2.10;;;;;;;;;;5089127;28;20099;-49
2022/12/31 19:24:17;;;;;;;6.35;2.38;;;;;;;;;;5088995;28;20115;-48
2022/12/31 19:26:43;;;;;;;2.20;1.95;;;;;;;;;;5089249;28;20510;-51
2022/12/31 19:29:17;;;;;;;7.28;2.15;;;;;;;;;;5089014;28;20028;-49
2022/12/31 19:31:43;;;;;;;7.60;2.75;;;;;;;;;;5089042;28;20028;-47
2022/12/31 19:34:10;;;;;;;6.53;2.50;;;;;;;;;;5089152;28;20038;-50
2022/12/31 19:36:36;;;;;;;5.80;2.30;;;;;;;;;;5070178;28;20028;-48
2022/12/31 19:39:03;;;;;;;5.55;2.22;;;;;;;;;;5070276;28;20020;-46
2022/12/31 19:41:29;;;;;;;4.43;2.30;;;;;;;;;;5089263;28;20051;-50
2022/12/31 19:43:56;;;;;;;5.68;2.33;;;;;;;;;;5088854;28;20062;-49
2022/12/31 19:46:23;;;;;;;4.32;2.05;;;;;;;;;;5088862;28;20035;-47
2022/12/31 19:48:49;;;;;;;5.88;2.35;;;;;;;;;;5088629;28;20024;-49
2022/12/31 19:51:16;;;;;;;4.55;2.20;;;;;;;;;;5088251;28;20105;-49
2022/12/31 19:53:42;;;;;;;6.85;2.17;;;;;;;;;;5088669;28;20081;-49
2022/12/31 19:56:16;;;;;;;7.47;2.55;;;;;;;;;;5069802;28;20417;-48
2022/12/31 19:58:42;;;;;;;7.15;2.40;;;;;;;;;;5088462;28;20078;-46
2022/12/31 20:01:09;;;;;;;4.68;2.20;;;;;;;;;;5088360;28;20031;-50
2022/12/31 20:03:35;;;;;;;5.72;2.30;;;;;;;;;;5088577;28;20072;-47
2022/12/31 20:06:06;;;;;;;6.63;2.20;;;;;;;;;;5088893;28;20054;-49
2022/12/31 20:08:32;;;;;;;5.57;2.30;;;;;;;;;;5088808;28;20032;-46
2022/12/31 20:11:06;;;;;;;6.43;2.08;;;;;;;;;;5089064;28;20073;-51
2022/12/31 20:13:32;;;;;;;4.57;2.33;;;;;;;;;;5089245;28;20094;-47
2022/12/31 20:15:59;;;;;;;6.13;2.33;;;;;;;;;;5089059;28;20067;-50
2022/12/31 20:18:24;;;;;;;3.75;2.25;;;;;;;;;;5089001;28;20024;-48
2022/12/31 20:20:52;;;;;;;4.20;1.88;;;;;;;;;;5088701;28;20020;-50